sensor_id;sensor_type;location;lat;lon;timestamp;temperature;humidity
51661;DHT22;37741;49.748;8.490;2022-07-23T00:01:07;28.00;49.40
51661;DHT22;37741;49.748;8.490;2022-07-23T00:03:32;28.00;49.50
51661;DHT22;37741;49.748;8.490;2022-07-23T00:05:58;28.00;49.70
51661;DHT22;37741;49.748;8.490;2022-07-23T00:08:23;28.00;49.80
51661;DHT22;37741;49.748;8.490;2022-07-23T00:10:49;27.90;49.90
51661;DHT22;37741;49.748;8.490;2022-07-23T00:13:14;27.90;50.00
51661;DHT22;37741;49.748;8.490;2022-07-23T00:15:40;27.80;50.00
51661;DHT22;37741;49.748;8.490;2022-07-23T00:18:05;27.80;50.20
51661;DHT22;37741;49.748;8.490;2022-07-23T00:20:31;27.70;50.30
51661;DHT22;37741;49.748;8.490;2022-07-23T00:22:56;27.70;50.50
51661;DHT22;37741;49.748;8.490;2022-07-23T00:25:22;27.60;50.60
51661;DHT22;37741;49.748;8.490;2022-07-23T00:27:48;27.50;50.70
51661;DHT22;37741;49.748;8.490;2022-07-23T00:30:14;27.50;50.90
51661;DHT22;37741;49.748;8.490;2022-07-23T00:32:49;27.50;51.00
51661;DHT22;37741;49.748;8.490;2022-07-23T00:35:16;27.40;51.00
51661;DHT22;37741;49.748;8.490;2022-07-23T00:37:44;27.40;51.20
51661;DHT22;37741;49.748;8.490;2022-07-23T00:40:10;27.40;51.40
51661;DHT22;37741;49.748;8.490;2022-07-23T00:42:35;27.30;51.30
51661;DHT22;37741;49.748;8.490;2022-07-23T00:45:01;27.30;51.40
51661;DHT22;37741;49.748;8.490;2022-07-23T00:47:26;27.30;51.50
51661;DHT22;37741;49.748;8.490;2022-07-23T00:49:52;27.30;51.50
51661;DHT22;37741;49.748;8.490;2022-07-23T00:52:17;27.20;51.60
51661;DHT22;37741;49.748;8.490;2022-07-23T00:54:43;27.20;51.90
51661;DHT22;37741;49.748;8.490;2022-07-23T00:57:09;27.10;51.90
51661;DHT22;37741;49.748;8.490;2022-07-23T00:59:34;27.10;51.90
51661;DHT22;37741;49.748;8.490;2022-07-23T01:02:00;27.10;52.00
51661;DHT22;37741;49.748;8.490;2022-07-23T01:04:25;27.00;52.10
51661;DHT22;37741;49.748;8.490;2022-07-23T01:06:51;27.00;52.10
51661;DHT22;37741;49.748;8.490;2022-07-23T01:09:16;26.90;52.20
51661;DHT22;37741;49.748;8.490;2022-07-23T01:11:42;26.90;52.30
51661;DHT22;37741;49.748;8.490;2022-07-23T01:14:15;26.90;52.30
51661;DHT22;37741;49.748;8.490;2022-07-23T01:16:41;26.90;52.60
51661;DHT22;37741;49.748;8.490;2022-07-23T01:19:07;26.80;52.40
51661;DHT22;37741;49.748;8.490;2022-07-23T01:21:35;26.80;52.60
51661;DHT22;37741;49.748;8.490;2022-07-23T01:24:00;26.70;52.60
51661;DHT22;37741;49.748;8.490;2022-07-23T01:26:26;26.70;52.70
51661;DHT22;37741;49.748;8.490;2022-07-23T01:28:51;26.70;52.80
51661;DHT22;37741;49.748;8.490;2022-07-23T01:31:17;26.70;52.80
51661;DHT22;37741;49.748;8.490;2022-07-23T01:33:44;26.70;52.90
51661;DHT22;37741;49.748;8.490;2022-07-23T01:36:09;26.60;53.10
51661;DHT22;37741;49.748;8.490;2022-07-23T01:38:35;26.60;53.20
51661;DHT22;37741;49.748;8.490;2022-07-23T01:41:01;26.60;53.20
51661;DHT22;37741;49.748;8.490;2022-07-23T01:43:26;26.60;53.30
51661;DHT22;37741;49.748;8.490;2022-07-23T01:45:52;26.60;53.30
51661;DHT22;37741;49.748;8.490;2022-07-23T01:48:17;26.50;53.90
51661;DHT22;37741;49.748;8.490;2022-07-23T01:50:43;26.50;53.40
51661;DHT22;37741;49.748;8.490;2022-07-23T01:53:08;26.50;53.40
51661;DHT22;37741;49.748;8.490;2022-07-23T01:55:34;26.50;53.50
51661;DHT22;37741;49.748;8.490;2022-07-23T01:57:59;26.50;53.40
51661;DHT22;37741;49.748;8.490;2022-07-23T02:00:25;26.50;53.60
51661;DHT22;37741;49.748;8.490;2022-07-23T02:02:50;26.50;53.40
51661;DHT22;37741;49.748;8.490;2022-07-23T02:05:16;26.50;53.50
51661;DHT22;37741;49.748;8.490;2022-07-23T02:07:41;26.50;53.50
51661;DHT22;37741;49.748;8.490;2022-07-23T02:10:07;26.50;53.50
51661;DHT22;37741;49.748;8.490;2022-07-23T02:12:33;26.50;53.80
51661;DHT22;37741;49.748;8.490;2022-07-23T02:14:58;26.50;53.90
51661;DHT22;37741;49.748;8.490;2022-07-23T02:17:24;26.40;54.00
51661;DHT22;37741;49.748;8.490;2022-07-23T02:19:49;26.40;53.90
51661;DHT22;37741;49.748;8.490;2022-07-23T02:22:15;26.40;53.90
51661;DHT22;37741;49.748;8.490;2022-07-23T02:24:40;26.30;53.90
51661;DHT22;37741;49.748;8.490;2022-07-23T02:27:06;26.30;53.90
51661;DHT22;37741;49.748;8.490;2022-07-23T02:29:31;26.30;54.00
51661;DHT22;37741;49.748;8.490;2022-07-23T02:31:57;26.30;54.10
51661;DHT22;37741;49.748;8.490;2022-07-23T02:34:22;26.20;54.10
51661;DHT22;37741;49.748;8.490;2022-07-23T02:36:48;26.20;54.40
51661;DHT22;37741;49.748;8.490;2022-07-23T02:39:13;26.20;54.70
51661;DHT22;37741;49.748;8.490;2022-07-23T02:41:39;26.20;55.00
51661;DHT22;37741;49.748;8.490;2022-07-23T02:44:05;26.10;55.20
51661;DHT22;37741;49.748;8.490;2022-07-23T02:46:30;26.10;55.50
51661;DHT22;37741;49.748;8.490;2022-07-23T02:48:56;26.10;55.60
51661;DHT22;37741;49.748;8.490;2022-07-23T02:51:21;26.10;55.90
51661;DHT22;37741;49.748;8.490;2022-07-23T02:53:47;26.00;55.90
51661;DHT22;37741;49.748;8.490;2022-07-23T02:56:12;26.00;56.20
51661;DHT22;37741;49.748;8.490;2022-07-23T02:58:38;25.90;56.40
51661;DHT22;37741;49.748;8.490;2022-07-23T03:01:03;25.90;56.50
51661;DHT22;37741;49.748;8.490;2022-07-23T03:03:29;25.80;56.70
51661;DHT22;37741;49.748;8.490;2022-07-23T03:05:54;25.80;56.80
51661;DHT22;37741;49.748;8.490;2022-07-23T03:08:20;25.70;56.70
51661;DHT22;37741;49.748;8.490;2022-07-23T03:10:45;25.70;56.70
51661;DHT22;37741;49.748;8.490;2022-07-23T03:13:10;25.70;57.00
51661;DHT22;37741;49.748;8.490;2022-07-23T03:15:36;25.60;57.00
51661;DHT22;37741;49.748;8.490;2022-07-23T03:18:01;25.60;57.10
51661;DHT22;37741;49.748;8.490;2022-07-23T03:20:27;25.60;57.20
51661;DHT22;37741;49.748;8.490;2022-07-23T03:22:52;25.50;57.20
51661;DHT22;37741;49.748;8.490;2022-07-23T03:25:18;25.50;57.20
51661;DHT22;37741;49.748;8.490;2022-07-23T03:27:43;25.50;57.20
51661;DHT22;37741;49.748;8.490;2022-07-23T03:30:10;25.50;57.40
51661;DHT22;37741;49.748;8.490;2022-07-23T03:32:36;25.50;57.50
51661;DHT22;37741;49.748;8.490;2022-07-23T03:35:02;25.40;57.50
51661;DHT22;37741;49.748;8.490;2022-07-23T03:37:28;25.40;57.80
51661;DHT22;37741;49.748;8.490;2022-07-23T03:39:53;25.40;58.00
51661;DHT22;37741;49.748;8.490;2022-07-23T03:42:19;25.30;58.00
51661;DHT22;37741;49.748;8.490;2022-07-23T03:44:44;25.30;58.80
51661;DHT22;37741;49.748;8.490;2022-07-23T03:47:10;25.30;58.30
51661;DHT22;37741;49.748;8.490;2022-07-23T03:49:35;25.20;58.10
51661;DHT22;37741;49.748;8.490;2022-07-23T03:52:01;25.20;58.10
51661;DHT22;37741;49.748;8.490;2022-07-23T03:54:26;25.20;58.20
51661;DHT22;37741;49.748;8.490;2022-07-23T03:56:52;25.10;58.30
51661;DHT22;37741;49.748;8.490;2022-07-23T03:59:17;25.10;58.20
51661;DHT22;37741;49.748;8.490;2022-07-23T04:01:43;25.00;58.30
51661;DHT22;37741;49.748;8.490;2022-07-23T04:04:08;25.00;58.40
51661;DHT22;37741;49.748;8.490;2022-07-23T04:06:34;25.00;58.40
51661;DHT22;37741;49.748;8.490;2022-07-23T04:09:00;25.00;58.70
51661;DHT22;37741;49.748;8.490;2022-07-23T04:11:25;24.90;58.60
51661;DHT22;37741;49.748;8.490;2022-07-23T04:13:51;25.00;58.70
51661;DHT22;37741;49.748;8.490;2022-07-23T04:16:17;24.90;58.70
51661;DHT22;37741;49.748;8.490;2022-07-23T04:18:42;24.90;58.90
51661;DHT22;37741;49.748;8.490;2022-07-23T04:21:08;24.90;58.80
51661;DHT22;37741;49.748;8.490;2022-07-23T04:23:33;24.80;59.30
51661;DHT22;37741;49.748;8.490;2022-07-23T04:25:58;24.80;59.40
51661;DHT22;37741;49.748;8.490;2022-07-23T04:28:24;24.80;59.60
51661;DHT22;37741;49.748;8.490;2022-07-23T04:30:49;24.80;59.90
51661;DHT22;37741;49.748;8.490;2022-07-23T04:33:15;24.80;59.80
51661;DHT22;37741;49.748;8.490;2022-07-23T04:35:41;24.80;60.00
51661;DHT22;37741;49.748;8.490;2022-07-23T04:38:06;24.80;60.00
51661;DHT22;37741;49.748;8.490;2022-07-23T04:40:32;24.80;59.80
51661;DHT22;37741;49.748;8.490;2022-07-23T04:42:57;24.80;59.90
51661;DHT22;37741;49.748;8.490;2022-07-23T04:45:23;24.80;59.80
51661;DHT22;37741;49.748;8.490;2022-07-23T04:47:49;24.80;60.00
51661;DHT22;37741;49.748;8.490;2022-07-23T04:50:15;24.70;59.90
51661;DHT22;37741;49.748;8.490;2022-07-23T04:52:47;24.70;59.90
51661;DHT22;37741;49.748;8.490;2022-07-23T04:55:12;24.70;59.90
51661;DHT22;37741;49.748;8.490;2022-07-23T04:57:38;24.70;59.80
51661;DHT22;37741;49.748;8.490;2022-07-23T05:00:04;24.70;59.90
51661;DHT22;37741;49.748;8.490;2022-07-23T05:02:29;24.60;60.00
51661;DHT22;37741;49.748;8.490;2022-07-23T05:04:55;24.60;60.10
51661;DHT22;37741;49.748;8.490;2022-07-23T05:07:20;24.60;60.30
51661;DHT22;37741;49.748;8.490;2022-07-23T05:09:46;24.60;60.30
51661;DHT22;37741;49.748;8.490;2022-07-23T05:12:11;24.60;60.30
51661;DHT22;37741;49.748;8.490;2022-07-23T05:14:37;24.60;60.30
51661;DHT22;37741;49.748;8.490;2022-07-23T05:17:02;24.60;60.30
51661;DHT22;37741;49.748;8.490;2022-07-23T05:19:28;24.60;60.40
51661;DHT22;37741;49.748;8.490;2022-07-23T05:21:53;24.50;60.40
51661;DHT22;37741;49.748;8.490;2022-07-23T05:24:19;24.50;60.50
51661;DHT22;37741;49.748;8.490;2022-07-23T05:26:44;24.50;60.60
51661;DHT22;37741;49.748;8.490;2022-07-23T05:29:10;24.50;60.50
51661;DHT22;37741;49.748;8.490;2022-07-23T05:31:35;24.50;60.60
51661;DHT22;37741;49.748;8.490;2022-07-23T05:34:01;24.40;60.50
51661;DHT22;37741;49.748;8.490;2022-07-23T05:36:26;24.40;60.70
51661;DHT22;37741;49.748;8.490;2022-07-23T05:38:52;24.40;60.80
51661;DHT22;37741;49.748;8.490;2022-07-23T05:41:17;24.40;60.90
51661;DHT22;37741;49.748;8.490;2022-07-23T05:43:43;24.30;61.00
51661;DHT22;37741;49.748;8.490;2022-07-23T05:46:09;24.30;61.00
51661;DHT22;37741;49.748;8.490;2022-07-23T05:48:34;24.30;61.10
51661;DHT22;37741;49.748;8.490;2022-07-23T05:51:00;24.20;61.20
51661;DHT22;37741;49.748;8.490;2022-07-23T05:53:26;24.20;61.40
51661;DHT22;37741;49.748;8.490;2022-07-23T05:55:51;24.20;61.50
51661;DHT22;37741;49.748;8.490;2022-07-23T05:58:17;24.20;61.70
51661;DHT22;37741;49.748;8.490;2022-07-23T06:00:42;24.10;61.80
51661;DHT22;37741;49.748;8.490;2022-07-23T06:03:08;24.10;62.00
51661;DHT22;37741;49.748;8.490;2022-07-23T06:05:33;24.00;62.20
51661;DHT22;37741;49.748;8.490;2022-07-23T06:07:59;24.00;62.10
51661;DHT22;37741;49.748;8.490;2022-07-23T06:10:24;24.00;62.20
51661;DHT22;37741;49.748;8.490;2022-07-23T06:12:50;24.00;62.30
51661;DHT22;37741;49.748;8.490;2022-07-23T06:15:15;24.00;62.40
51661;DHT22;37741;49.748;8.490;2022-07-23T06:17:41;24.00;62.60
51661;DHT22;37741;49.748;8.490;2022-07-23T06:20:07;23.90;62.70
51661;DHT22;37741;49.748;8.490;2022-07-23T06:22:33;23.90;62.80
51661;DHT22;37741;49.748;8.490;2022-07-23T06:24:59;23.90;63.10
51661;DHT22;37741;49.748;8.490;2022-07-23T06:27:24;23.80;63.00
51661;DHT22;37741;49.748;8.490;2022-07-23T06:29:50;23.90;63.20
51661;DHT22;37741;49.748;8.490;2022-07-23T06:32:15;23.90;63.20
51661;DHT22;37741;49.748;8.490;2022-07-23T06:34:41;23.80;63.30
51661;DHT22;37741;49.748;8.490;2022-07-23T06:37:06;23.90;63.80
51661;DHT22;37741;49.748;8.490;2022-07-23T06:39:32;23.80;63.80
51661;DHT22;37741;49.748;8.490;2022-07-23T06:41:57;23.90;64.00
51661;DHT22;37741;49.748;8.490;2022-07-23T06:44:23;23.90;63.90
51661;DHT22;37741;49.748;8.490;2022-07-23T06:46:48;23.80;64.00
51661;DHT22;37741;49.748;8.490;2022-07-23T06:49:14;23.80;63.90
51661;DHT22;37741;49.748;8.490;2022-07-23T06:51:39;23.90;64.10
51661;DHT22;37741;49.748;8.490;2022-07-23T06:54:05;23.90;63.90
51661;DHT22;37741;49.748;8.490;2022-07-23T06:56:30;23.90;63.90
51661;DHT22;37741;49.748;8.490;2022-07-23T06:58:56;23.90;63.80
51661;DHT22;37741;49.748;8.490;2022-07-23T07:01:21;23.80;63.70
51661;DHT22;37741;49.748;8.490;2022-07-23T07:03:47;23.80;63.80
51661;DHT22;37741;49.748;8.490;2022-07-23T07:06:13;23.80;63.70
51661;DHT22;37741;49.748;8.490;2022-07-23T07:08:38;23.90;63.80
51661;DHT22;37741;49.748;8.490;2022-07-23T07:11:04;23.90;63.70
51661;DHT22;37741;49.748;8.490;2022-07-23T07:13:29;23.90;63.60
51661;DHT22;37741;49.748;8.490;2022-07-23T07:15:55;23.90;63.50
51661;DHT22;37741;49.748;8.490;2022-07-23T07:18:20;24.00;63.60
51661;DHT22;37741;49.748;8.490;2022-07-23T07:20:46;24.00;63.40
51661;DHT22;37741;49.748;8.490;2022-07-23T07:23:12;24.00;63.30
51661;DHT22;37741;49.748;8.490;2022-07-23T07:25:37;24.00;63.20
51661;DHT22;37741;49.748;8.490;2022-07-23T07:28:03;24.00;63.00
51661;DHT22;37741;49.748;8.490;2022-07-23T07:30:28;24.00;62.90
51661;DHT22;37741;49.748;8.490;2022-07-23T07:32:54;24.00;62.90
51661;DHT22;37741;49.748;8.490;2022-07-23T07:35:19;24.00;62.80
51661;DHT22;37741;49.748;8.490;2022-07-23T07:37:45;24.10;62.70
51661;DHT22;37741;49.748;8.490;2022-07-23T07:40:10;24.10;62.70
51661;DHT22;37741;49.748;8.490;2022-07-23T07:42:49;24.10;62.70
51661;DHT22;37741;49.748;8.490;2022-07-23T07:45:15;24.10;62.70
51661;DHT22;37741;49.748;8.490;2022-07-23T07:47:40;24.10;62.70
51661;DHT22;37741;49.748;8.490;2022-07-23T07:50:06;24.20;62.70
51661;DHT22;37741;49.748;8.490;2022-07-23T07:52:33;24.20;62.70
51661;DHT22;37741;49.748;8.490;2022-07-23T07:54:59;24.10;62.30
51661;DHT22;37741;49.748;8.490;2022-07-23T07:57:24;24.10;62.30
51661;DHT22;37741;49.748;8.490;2022-07-23T07:59:50;24.20;62.40
51661;DHT22;37741;49.748;8.490;2022-07-23T08:02:15;24.20;63.00
51661;DHT22;37741;49.748;8.490;2022-07-23T08:04:41;24.20;62.30
51661;DHT22;37741;49.748;8.490;2022-07-23T08:07:06;24.20;62.60
51661;DHT22;37741;49.748;8.490;2022-07-23T08:09:32;24.20;62.40
51661;DHT22;37741;49.748;8.490;2022-07-23T08:11:57;24.20;62.30
51661;DHT22;37741;49.748;8.490;2022-07-23T08:14:23;24.20;62.30
51661;DHT22;37741;49.748;8.490;2022-07-23T08:16:48;24.20;62.30
51661;DHT22;37741;49.748;8.490;2022-07-23T08:19:14;24.20;62.40
51661;DHT22;37741;49.748;8.490;2022-07-23T08:21:39;24.20;62.50
51661;DHT22;37741;49.748;8.490;2022-07-23T08:24:05;24.20;62.30
51661;DHT22;37741;49.748;8.490;2022-07-23T08:26:30;24.20;62.40
51661;DHT22;37741;49.748;8.490;2022-07-23T08:28:56;24.20;62.30
51661;DHT22;37741;49.748;8.490;2022-07-23T08:31:21;24.20;62.40
51661;DHT22;37741;49.748;8.490;2022-07-23T08:33:47;24.20;62.30
51661;DHT22;37741;49.748;8.490;2022-07-23T08:36:12;24.20;62.20
51661;DHT22;37741;49.748;8.490;2022-07-23T08:38:38;24.20;62.40
51661;DHT22;37741;49.748;8.490;2022-07-23T08:41:03;24.30;62.20
51661;DHT22;37741;49.748;8.490;2022-07-23T08:43:32;24.20;62.20
51661;DHT22;37741;49.748;8.490;2022-07-23T08:45:59;24.20;62.30
51661;DHT22;37741;49.748;8.490;2022-07-23T08:48:26;24.30;62.20
51661;DHT22;37741;49.748;8.490;2022-07-23T08:50:53;24.30;62.10
51661;DHT22;37741;49.748;8.490;2022-07-23T08:53:20;24.20;62.10
51661;DHT22;37741;49.748;8.490;2022-07-23T08:55:46;24.20;62.10
51661;DHT22;37741;49.748;8.490;2022-07-23T08:58:12;24.30;62.10
51661;DHT22;37741;49.748;8.490;2022-07-23T09:00:38;24.20;62.30
51661;DHT22;37741;49.748;8.490;2022-07-23T09:03:03;24.20;62.10
51661;DHT22;37741;49.748;8.490;2022-07-23T09:05:29;24.20;62.10
51661;DHT22;37741;49.748;8.490;2022-07-23T09:08:07;24.20;62.30
51661;DHT22;37741;49.748;8.490;2022-07-23T09:11:16;24.20;62.10
51661;DHT22;37741;49.748;8.490;2022-07-23T09:13:23;24.20;62.20
51661;DHT22;37741;49.748;8.490;2022-07-23T09:15:49;24.20;62.40
51661;DHT22;37741;49.748;8.490;2022-07-23T09:18:15;24.20;62.30
51661;DHT22;37741;49.748;8.490;2022-07-23T09:20:41;24.20;62.30
51661;DHT22;37741;49.748;8.490;2022-07-23T09:23:06;24.20;62.30
51661;DHT22;37741;49.748;8.490;2022-07-23T09:25:32;24.20;62.30
51661;DHT22;37741;49.748;8.490;2022-07-23T09:27:58;24.20;62.40
51661;DHT22;37741;49.748;8.490;2022-07-23T09:30:25;24.20;62.50
51661;DHT22;37741;49.748;8.490;2022-07-23T09:33:07;24.20;62.50
51661;DHT22;37741;49.748;8.490;2022-07-23T09:35:52;24.20;62.80
51661;DHT22;37741;49.748;8.490;2022-07-23T09:38:19;24.20;62.50
51661;DHT22;37741;49.748;8.490;2022-07-23T09:40:44;24.20;62.60
51661;DHT22;37741;49.748;8.490;2022-07-23T09:43:11;24.20;62.40
51661;DHT22;37741;49.748;8.490;2022-07-23T09:45:37;24.20;62.40
51661;DHT22;37741;49.748;8.490;2022-07-23T09:48:11;24.20;62.40
51661;DHT22;37741;49.748;8.490;2022-07-23T09:50:38;24.20;62.70
51661;DHT22;37741;49.748;8.490;2022-07-23T09:53:03;24.20;62.40
51661;DHT22;37741;49.748;8.490;2022-07-23T09:55:33;24.20;62.40
51661;DHT22;37741;49.748;8.490;2022-07-23T09:58:08;24.20;62.40
51661;DHT22;37741;49.748;8.490;2022-07-23T10:00:38;24.20;62.70
51661;DHT22;37741;49.748;8.490;2022-07-23T10:03:05;24.30;62.70
51661;DHT22;37741;49.748;8.490;2022-07-23T10:05:31;24.30;62.40
51661;DHT22;37741;49.748;8.490;2022-07-23T10:07:56;24.30;62.20
51661;DHT22;37741;49.748;8.490;2022-07-23T10:10:23;24.40;62.30
51661;DHT22;37741;49.748;8.490;2022-07-23T10:12:50;24.40;62.20
51661;DHT22;37741;49.748;8.490;2022-07-23T10:15:34;24.40;61.50
51661;DHT22;37741;49.748;8.490;2022-07-23T10:18:00;24.40;61.60
51661;DHT22;37741;49.748;8.490;2022-07-23T10:20:25;24.40;61.60
51661;DHT22;37741;49.748;8.490;2022-07-23T10:39:04;24.80;60.40
51661;DHT22;37741;49.748;8.490;2022-07-23T10:41:37;24.80;60.30
51661;DHT22;37741;49.748;8.490;2022-07-23T10:46:32;24.90;59.80
51661;DHT22;37741;49.748;8.490;2022-07-23T10:49:39;24.90;59.60
51661;DHT22;37741;49.748;8.490;2022-07-23T10:54:30;25.00;59.30
51661;DHT22;37741;49.748;8.490;2022-07-23T10:59:24;25.20;59.20
51661;DHT22;37741;49.748;8.490;2022-07-23T11:01:49;25.20;59.10
51661;DHT22;37741;49.748;8.490;2022-07-23T11:04:15;25.20;59.00
51661;DHT22;37741;49.748;8.490;2022-07-23T11:12:15;25.30;59.00
51661;DHT22;37741;49.748;8.490;2022-07-23T11:17:20;25.40;58.50
51661;DHT22;37741;49.748;8.490;2022-07-23T11:25:02;25.50;58.10
51661;DHT22;37741;49.748;8.490;2022-07-23T11:27:37;25.60;58.20
51661;DHT22;37741;49.748;8.490;2022-07-23T11:30:03;25.60;58.10
51661;DHT22;37741;49.748;8.490;2022-07-23T11:32:39;25.60;58.10
51661;DHT22;37741;49.748;8.490;2022-07-23T11:35:21;25.60;57.90
51661;DHT22;37741;49.748;8.490;2022-07-23T11:37:47;25.70;57.80
51661;DHT22;37741;49.748;8.490;2022-07-23T11:40:14;25.80;57.60
51661;DHT22;37741;49.748;8.490;2022-07-23T11:42:57;25.80;57.60
51661;DHT22;37741;49.748;8.490;2022-07-23T11:45:23;25.80;57.50
51661;DHT22;37741;49.748;8.490;2022-07-23T11:47:48;25.80;57.50
51661;DHT22;37741;49.748;8.490;2022-07-23T11:50:14;25.80;57.50
51661;DHT22;37741;49.748;8.490;2022-07-23T11:52:40;25.80;57.50
51661;DHT22;37741;49.748;8.490;2022-07-23T11:55:06;25.80;57.40
51661;DHT22;37741;49.748;8.490;2022-07-23T11:57:33;25.80;57.20
51661;DHT22;37741;49.748;8.490;2022-07-23T12:02:28;25.90;57.30
51661;DHT22;37741;49.748;8.490;2022-07-23T12:04:53;25.90;57.50
51661;DHT22;37741;49.748;8.490;2022-07-23T12:07:32;26.00;57.10
51661;DHT22;37741;49.748;8.490;2022-07-23T12:10:01;26.00;56.90
51661;DHT22;37741;49.748;8.490;2022-07-23T12:12:27;26.00;56.90
51661;DHT22;37741;49.748;8.490;2022-07-23T12:14:54;26.00;56.90
51661;DHT22;37741;49.748;8.490;2022-07-23T12:17:21;26.00;56.80
51661;DHT22;37741;49.748;8.490;2022-07-23T12:19:47;26.10;56.70
51661;DHT22;37741;49.748;8.490;2022-07-23T12:22:13;26.10;56.50
51661;DHT22;37741;49.748;8.490;2022-07-23T12:24:52;26.20;56.50
51661;DHT22;37741;49.748;8.490;2022-07-23T12:27:20;26.20;56.30
51661;DHT22;37741;49.748;8.490;2022-07-23T12:29:45;26.30;56.10
51661;DHT22;37741;49.748;8.490;2022-07-23T12:32:18;26.30;56.00
51661;DHT22;37741;49.748;8.490;2022-07-23T12:34:44;26.30;55.80
51661;DHT22;37741;49.748;8.490;2022-07-23T12:37:31;26.40;55.90
51661;DHT22;37741;49.748;8.490;2022-07-23T12:39:57;26.40;55.90
51661;DHT22;37741;49.748;8.490;2022-07-23T12:42:22;26.40;55.80
51661;DHT22;37741;49.748;8.490;2022-07-23T12:45:04;26.50;55.90
51661;DHT22;37741;49.748;8.490;2022-07-23T12:47:29;26.50;55.50
51661;DHT22;37741;49.748;8.490;2022-07-23T12:49:55;26.60;55.40
51661;DHT22;37741;49.748;8.490;2022-07-23T12:52:21;26.60;55.40
51661;DHT22;37741;49.748;8.490;2022-07-23T12:54:46;26.60;55.40
51661;DHT22;37741;49.748;8.490;2022-07-23T12:57:12;26.70;55.40
51661;DHT22;37741;49.748;8.490;2022-07-23T12:59:37;26.70;55.40
51661;DHT22;37741;49.748;8.490;2022-07-23T13:02:03;26.80;55.40
51661;DHT22;37741;49.748;8.490;2022-07-23T13:04:29;26.90;55.10
51661;DHT22;37741;49.748;8.490;2022-07-23T13:06:57;26.90;55.20
51661;DHT22;37741;49.748;8.490;2022-07-23T13:09:24;27.00;55.00
51661;DHT22;37741;49.748;8.490;2022-07-23T13:11:50;27.10;54.40
51661;DHT22;37741;49.748;8.490;2022-07-23T13:14:16;27.20;54.30
51661;DHT22;37741;49.748;8.490;2022-07-23T13:16:42;27.30;54.20
51661;DHT22;37741;49.748;8.490;2022-07-23T13:19:08;27.40;54.40
51661;DHT22;37741;49.748;8.490;2022-07-23T13:21:34;27.50;54.20
51661;DHT22;37741;49.748;8.490;2022-07-23T13:23:59;27.60;53.80
51661;DHT22;37741;49.748;8.490;2022-07-23T13:26:25;27.70;53.60
51661;DHT22;37741;49.748;8.490;2022-07-23T13:28:51;27.90;53.50
51661;DHT22;37741;49.748;8.490;2022-07-23T13:31:17;28.00;53.10
51661;DHT22;37741;49.748;8.490;2022-07-23T13:33:42;28.10;52.80
51661;DHT22;37741;49.748;8.490;2022-07-23T13:36:08;28.20;52.60
51661;DHT22;37741;49.748;8.490;2022-07-23T13:38:34;28.30;52.50
51661;DHT22;37741;49.748;8.490;2022-07-23T13:40:59;28.40;52.40
51661;DHT22;37741;49.748;8.490;2022-07-23T13:43:25;28.40;52.00
51661;DHT22;37741;49.748;8.490;2022-07-23T13:45:51;28.50;51.60
51661;DHT22;37741;49.748;8.490;2022-07-23T13:48:18;28.50;51.00
51661;DHT22;37741;49.748;8.490;2022-07-23T13:50:44;28.60;51.00
51661;DHT22;37741;49.748;8.490;2022-07-23T13:53:10;28.60;51.20
51661;DHT22;37741;49.748;8.490;2022-07-23T13:55:36;28.60;50.60
51661;DHT22;37741;49.748;8.490;2022-07-23T13:58:03;28.70;51.10
51661;DHT22;37741;49.748;8.490;2022-07-23T14:00:29;28.70;50.70
51661;DHT22;37741;49.748;8.490;2022-07-23T14:02:56;28.70;51.00
51661;DHT22;37741;49.748;8.490;2022-07-23T14:05:21;28.70;50.50
51661;DHT22;37741;49.748;8.490;2022-07-23T14:07:47;28.80;50.70
51661;DHT22;37741;49.748;8.490;2022-07-23T14:10:15;28.90;50.70
51661;DHT22;37741;49.748;8.490;2022-07-23T14:12:41;29.00;50.10
51661;DHT22;37741;49.748;8.490;2022-07-23T14:15:07;29.10;49.90
51661;DHT22;37741;49.748;8.490;2022-07-23T14:17:35;29.20;50.10
51661;DHT22;37741;49.748;8.490;2022-07-23T14:20:01;29.20;50.30
51661;DHT22;37741;49.748;8.490;2022-07-23T14:22:26;29.30;49.80
51661;DHT22;37741;49.748;8.490;2022-07-23T14:24:52;29.30;48.70
51661;DHT22;37741;49.748;8.490;2022-07-23T14:27:17;29.40;49.10
51661;DHT22;37741;49.748;8.490;2022-07-23T14:29:43;29.50;48.80
51661;DHT22;37741;49.748;8.490;2022-07-23T14:32:08;29.60;48.40
51661;DHT22;37741;49.748;8.490;2022-07-23T14:34:34;29.70;47.90
51661;DHT22;37741;49.748;8.490;2022-07-23T14:37:00;29.70;48.60
51661;DHT22;37741;49.748;8.490;2022-07-23T14:39:26;29.80;49.00
51661;DHT22;37741;49.748;8.490;2022-07-23T14:41:52;29.80;48.50
51661;DHT22;37741;49.748;8.490;2022-07-23T14:44:17;29.80;47.30
51661;DHT22;37741;49.748;8.490;2022-07-23T14:46:43;29.90;48.40
51661;DHT22;37741;49.748;8.490;2022-07-23T14:49:08;29.90;48.60
51661;DHT22;37741;49.748;8.490;2022-07-23T14:51:34;29.90;48.80
51661;DHT22;37741;49.748;8.490;2022-07-23T14:54:00;29.90;48.40
51661;DHT22;37741;49.748;8.490;2022-07-23T14:56:25;30.00;46.90
51661;DHT22;37741;49.748;8.490;2022-07-23T14:58:51;30.10;47.40
51661;DHT22;37741;49.748;8.490;2022-07-23T15:01:16;30.10;47.00
51661;DHT22;37741;49.748;8.490;2022-07-23T15:03:42;30.20;47.60
51661;DHT22;37741;49.748;8.490;2022-07-23T15:06:07;30.30;46.50
51661;DHT22;37741;49.748;8.490;2022-07-23T15:08:33;30.30;46.10
51661;DHT22;37741;49.748;8.490;2022-07-23T15:10:58;30.30;44.90
51661;DHT22;37741;49.748;8.490;2022-07-23T15:13:24;30.40;45.00
51661;DHT22;37741;49.748;8.490;2022-07-23T15:15:49;30.40;45.30
51661;DHT22;37741;49.748;8.490;2022-07-23T15:18:15;30.40;46.30
51661;DHT22;37741;49.748;8.490;2022-07-23T15:20:41;30.40;45.60
51661;DHT22;37741;49.748;8.490;2022-07-23T15:23:07;30.40;45.70
51661;DHT22;37741;49.748;8.490;2022-07-23T15:25:33;30.50;44.30
51661;DHT22;37741;49.748;8.490;2022-07-23T15:27:58;30.50;45.80
51661;DHT22;37741;49.748;8.490;2022-07-23T15:30:24;30.60;45.90
51661;DHT22;37741;49.748;8.490;2022-07-23T15:32:49;30.70;45.70
51661;DHT22;37741;49.748;8.490;2022-07-23T15:35:15;30.70;45.80
51661;DHT22;37741;49.748;8.490;2022-07-23T15:37:41;30.80;45.20
51661;DHT22;37741;49.748;8.490;2022-07-23T15:40:07;30.90;45.00
51661;DHT22;37741;49.748;8.490;2022-07-23T15:42:33;31.00;45.40
51661;DHT22;37741;49.748;8.490;2022-07-23T15:44:58;31.00;44.50
51661;DHT22;37741;49.748;8.490;2022-07-23T15:47:24;31.00;46.20
51661;DHT22;37741;49.748;8.490;2022-07-23T15:49:49;31.00;44.60
51661;DHT22;37741;49.748;8.490;2022-07-23T15:52:15;31.00;45.90
51661;DHT22;37741;49.748;8.490;2022-07-23T15:54:40;31.00;45.10
51661;DHT22;37741;49.748;8.490;2022-07-23T15:57:07;31.00;45.80
51661;DHT22;37741;49.748;8.490;2022-07-23T15:59:32;31.00;45.90
51661;DHT22;37741;49.748;8.490;2022-07-23T16:01:58;31.00;46.00
51661;DHT22;37741;49.748;8.490;2022-07-23T16:04:24;31.00;45.90